Home > Products > Valid Products > TAF

000
FTPQ31 PGUM 231100
TAFPQ
TAF
PGUM 231121Z 2312/2418 09009KT P6SM VCSH FEW018 SCT050=



000
FTPQ31 PGUM 231100
TAFPQ
TAF
PGUM 231121Z 2312/2418 09009KT P6SM VCSH FEW018 SCT050=



000
FTPQ31 PGUM 230500
TAFPQ
TAF
PGUM 230523Z 2306/2412 09009KT P6SM VCSH FEW018 SCT050 BKN120
      TEMPO 2306/2309 VRB12G20KT 2SM +SHRA FEW019 BKN030 OVC060=



000
FTPQ31 PGUM 230500
TAFPQ
TAF
PGUM 230523Z 2306/2412 09009KT P6SM VCSH FEW018 SCT050 BKN120
      TEMPO 2306/2309 VRB12G20KT 2SM +SHRA FEW019 BKN030 OVC060=



000
FTPQ31 PGUM 230300 AAA
TAFPQ
TAF AMD
PGUM 230347Z 2304/2406 08011G17KT P6SM VCSH FEW018 SCT050 SCT120
      TEMPO 2304/2306 VRB12G20KT 2SM +SHRA FEW019 BKN030 OVC060
     FM230900 09009KT P6SM VCSH FEW018 SCT040 BKN120=



000
FTPQ31 PGUM 230300 AAA
TAFPQ
TAF AMD
PGUM 230347Z 2304/2406 08011G17KT P6SM VCSH FEW018 SCT050 SCT120
      TEMPO 2304/2306 VRB12G20KT 2SM +SHRA FEW019 BKN030 OVC060
     FM230900 09009KT P6SM VCSH FEW018 SCT040 BKN120=



000
FTPQ31 PGUM 230300 AAA
TAFPQ
TAF AMD
PGUM 230347Z 2304/2406 08011G17KT P6SM VCSH FEW018 SCT050 SCT120
      TEMPO 2304/2306 VRB12G20KT 2SM +SHRA FEW019 BKN030 OVC060
     FM230900 09009KT P6SM VCSH FEW018 SCT040 BKN120=



000
FTPQ31 PGUM 222300
TAFPQ
TAF
PGUM 222323Z 2300/2406 08011G17KT P6SM VCSH FEW018 SCT050 SCT120
     FM230900 09009KT P6SM VCSH FEW018 SCT040 BKN120=



000
FTPQ31 PGUM 222300
TAFPQ
TAF
PGUM 222323Z 2300/2406 08011G17KT P6SM VCSH FEW018 SCT050 SCT120
     FM230900 09009KT P6SM VCSH FEW018 SCT040 BKN120=



000
FTPQ31 PGUM 222100 AAB
TAFPQ
TAF AMD
PGUM 222125Z 2221/2324 09011KT P6SM VCSH FEW018 SCT040 BKN120
     FM222300 08012G20KT P6SM VCSH FEW018 SCT050 SCT120=



000
FTPQ31 PGUM 222100 AAB
TAFPQ
TAF AMD
PGUM 222125Z 2221/2324 09011KT P6SM VCSH FEW018 SCT040 BKN120
     FM222300 08012G20KT P6SM VCSH FEW018 SCT050 SCT120=



000
FTPQ31 PGUM 221700
TAFPQ
TAF
PGUM 221733Z 2218/2324 09011KT P6SM VCSH FEW018 SCT040 BKN120
     FM222300 08014G24KT P6SM VCSH FEW018 SCT050 SCT120=



000
FTPQ31 PGUM 221700
TAFPQ
TAF
PGUM 221733Z 2218/2324 09011KT P6SM VCSH FEW018 SCT040 BKN120
     FM222300 08014G24KT P6SM VCSH FEW018 SCT050 SCT120=



000
FTPQ31 PGUM 221700 AAC
TAFPQ
TAF AMD
PGUM 221706Z 2217/2318 09013KT P6SM VCSH FEW018 SCT040 BKN120
      TEMPO 2217/2218 5SM TSRA SCT014CB BKN025
     FM222300 08012G20KT P6SM VCSH FEW018 SCT050 SCT120=



000
FTPQ31 PGUM 221700 AAC
TAFPQ
TAF AMD
PGUM 221706Z 2217/2318 09013KT P6SM VCSH FEW018 SCT040 BKN120
      TEMPO 2217/2218 5SM TSRA SCT014CB BKN025
     FM222300 08012G20KT P6SM VCSH FEW018 SCT050 SCT120=



000
FTPQ31 PGUM 221100
TAFPQ
TAF
PGUM 221120Z 2212/2318 09011KT P6SM VCSH FEW018 SCT040 BKN120
     FM222300 08012G20KT P6SM VCSH FEW018 SCT050 SCT120=



000
FTPQ31 PGUM 221100
TAFPQ
TAF
PGUM 221120Z 2212/2318 09011KT P6SM VCSH FEW018 SCT040 BKN120
     FM222300 08012G20KT P6SM VCSH FEW018 SCT050 SCT120=



000
FTPQ31 PGUM 220500
TAFPQ
TAF
PGUM 220520Z 2206/2312 08012G22KT P6SM VCSH FEW016 SCT040 SCT120
     FM220900 07011KT P6SM VCSH FEW018 SCT050 SCT120
     FM222300 07012G20KT P6SM VCSH FEW016 SCT040 SCT120=



000
FTPQ31 PGUM 220500
TAFPQ
TAF
PGUM 220520Z 2206/2312 08012G22KT P6SM VCSH FEW016 SCT040 SCT120
     FM220900 07011KT P6SM VCSH FEW018 SCT050 SCT120
     FM222300 07012G20KT P6SM VCSH FEW016 SCT040 SCT120=



000
FTPQ31 PGUM 212300
TAFPQ
TAF
PGUM 212322Z 2200/2306 08012G19KT P6SM VCSH FEW016 SCT040 SCT120
     FM220900 07011KT P6SM VCSH FEW018 SCT050 SCT120
     FM222300 07012G20KT P6SM VCSH FEW016 SCT040 SCT120=



000
FTPQ31 PGUM 212300
TAFPQ
TAF
PGUM 212322Z 2200/2306 08012G19KT P6SM VCSH FEW016 SCT040 SCT120
     FM220900 07011KT P6SM VCSH FEW018 SCT050 SCT120
     FM222300 07012G20KT P6SM VCSH FEW016 SCT040 SCT120=



000
FTPQ31 PGUM 211700 RRA
TAFPQ
TAF
PGUM 211741Z 2118/2224 07011KT P6SM VCSH FEW016 SCT040 BKN120
     FM220000 08012G22KT P6SM VCSH FEW018 SCT050 SCT120=



000
FTPQ31 PGUM 211700 RRA
TAFPQ
TAF
PGUM 211741Z 2118/2224 07011KT P6SM VCSH FEW016 SCT040 BKN120
     FM220000 08012G22KT P6SM VCSH FEW018 SCT050 SCT120=



000
FTPQ31 PGUM 211600 AAB
TAFPQ
TAF AMD
PGUM 211617Z 2116/2218 06010KT P6SM VCSH FEW018 SCT050 SCT120
      TEMPO 2116/2118 06015KT 5SM SHRA SCT014 BKN025
     FM212000 06011G18KT P6SM VCSH FEW018 SCT050 BKN120=



000
FTPQ31 PGUM 211600 AAB
TAFPQ
TAF AMD
PGUM 211617Z 2116/2218 06010KT P6SM VCSH FEW018 SCT050 SCT120
      TEMPO 2116/2118 06015KT 5SM SHRA SCT014 BKN025
     FM212000 06011G18KT P6SM VCSH FEW018 SCT050 BKN120=



000
FTPQ31 PGUM 211100 RRA
TAFPQ
TAF
PGUM 211147Z 2112/2218 06010KT P6SM VCSH FEW018 SCT050 SCT120
      TEMPO 2112/2116 06015KT 5SM SHRA SCT014 BKN025
     FM212000 06011G18KT P6SM VCSH FEW018 SCT050 BKN120=



000
FTPQ31 PGUM 210500
TAFPQ
TAF
PGUM 210523Z 2106/2212 08012KT P6SM VCSH FEW020 SCT050 SCT120=



000
FTPQ31 PGUM 210500
TAFPQ
TAF
PGUM 210523Z 2106/2212 08012KT P6SM VCSH FEW020 SCT050 SCT120=



000
FTPQ31 PGUM 202300
TAFPQ
TAF
PGUM 202320Z 2100/2206 08012KT P6SM VCSH FEW020 SCT050 SCT120=



000
FTPQ31 PGUM 202300
TAFPQ
TAF
PGUM 202320Z 2100/2206 08012KT P6SM VCSH FEW020 SCT050 SCT120=



000
FTPQ31 PGUM 201700
TAFPQ
TAF
PGUM 201736Z 2018/2124 09007KT P6SM VCSH FEW020 SCT050
     FM202200 07011G18KT P6SM VCSH FEW020 SCT050 SCT120=



000
FTPQ31 PGUM 201700
TAFPQ
TAF
PGUM 201736Z 2018/2124 09007KT P6SM VCSH FEW020 SCT050
     FM202200 07011G18KT P6SM VCSH FEW020 SCT050 SCT120=



    US Dept of Commerce
    National Oceanic and Atmospheric Administration
    National Weather Service
    1325 East West Highway
    Silver Spring, MD 20910
    Page Author: NWS Internet Services Team
Disclaimer
Information Quality
Credits
Glossary
Privacy Policy
Freedom of Information Act (FOIA)
About Us
Career Opportunities